createdAt,value
2023-04-14T00:02:01.073Z,0.00
2023-04-14T00:07:23.684Z,0.00
2023-04-14T00:12:16.102Z,0.00
2023-04-14T00:17:16.121Z,0.00
2023-04-14T00:22:15.953Z,0.00
2023-04-14T00:27:15.892Z,0.00
2023-04-14T00:32:15.803Z,0.00
2023-04-14T00:37:15.747Z,0.00
2023-04-14T00:42:15.675Z,0.00
2023-04-14T00:47:15.625Z,0.00
2023-04-14T00:52:15.555Z,0.00
2023-04-14T00:57:15.498Z,0.00
2023-04-14T01:02:15.482Z,0.00
2023-04-14T01:07:15.386Z,0.00
2023-04-14T01:12:15.297Z,0.00
2023-04-14T01:17:15.608Z,0.00
2023-04-14T01:22:15.166Z,0.00
2023-04-14T01:27:15.120Z,0.00
2023-04-14T01:32:15.008Z,0.00
2023-04-14T01:37:15.037Z,0.00
2023-04-14T01:42:14.952Z,0.00
2023-04-14T01:47:14.858Z,0.00
2023-04-14T01:52:14.777Z,0.00
2023-04-14T01:57:14.743Z,0.00
2023-04-14T02:02:14.728Z,0.00
2023-04-14T02:07:14.594Z,0.00
2023-04-14T02:12:14.533Z,0.00
2023-04-14T02:17:14.477Z,0.00
2023-04-14T02:22:14.398Z,0.00
2023-04-14T02:27:14.356Z,0.00
2023-04-14T02:32:14.254Z,0.00
2023-04-14T02:37:14.212Z,0.00
2023-04-14T02:42:14.139Z,0.00
2023-04-14T02:47:14.116Z,0.00
2023-04-14T02:52:14.034Z,0.00
2023-04-14T02:57:13.958Z,0.00
2023-04-14T03:02:14.004Z,0.00
2023-04-14T03:07:13.837Z,0.00
2023-04-14T03:12:13.730Z,0.00
2023-04-14T03:17:13.702Z,0.00
2023-04-14T03:22:13.615Z,0.00
2023-04-14T03:27:13.587Z,0.00
2023-04-14T03:32:13.495Z,0.00
2023-04-14T03:37:13.436Z,0.00
2023-04-14T03:42:13.371Z,0.00
2023-04-14T03:47:13.297Z,0.00
2023-04-14T03:52:13.271Z,0.00
2023-04-14T03:57:13.195Z,0.00
2023-04-14T04:02:13.127Z,0.00
2023-04-14T04:07:13.048Z,0.00
2023-04-14T04:12:12.979Z,4.00
2023-04-14T04:17:24.028Z,4.00
2023-04-14T04:22:16.359Z,8.00
2023-04-14T04:27:27.107Z,20.00
2023-04-14T04:32:17.328Z,36.00
2023-04-14T04:37:16.137Z,72.00
2023-04-14T04:42:16.084Z,120.00
2023-04-14T04:47:16.043Z,184.00
2023-04-14T04:52:15.991Z,276.00
2023-04-14T04:57:15.902Z,376.00
2023-04-14T05:02:15.848Z,488.00
2023-04-14T05:07:15.775Z,600.00
2023-04-14T05:12:15.729Z,720.00
2023-04-14T05:17:15.629Z,952.00
2023-04-14T05:22:16.257Z,1048.00
2023-04-14T05:27:15.490Z,1140.00
2023-04-14T05:32:15.450Z,1224.00
2023-04-14T05:37:15.400Z,1280.00
2023-04-14T05:42:15.360Z,1360.00
2023-04-14T05:47:15.221Z,1508.00
2023-04-14T05:52:15.189Z,1684.00
2023-04-14T05:57:15.121Z,2032.00
2023-04-14T06:02:15.100Z,2540.00
2023-04-14T06:07:15.003Z,2968.00
2023-04-14T06:12:14.947Z,3180.00
2023-04-14T06:17:14.850Z,3052.00
2023-04-14T06:22:14.816Z,2888.00
2023-04-14T06:27:14.721Z,3224.00
2023-04-14T06:32:14.679Z,3520.00
2023-04-14T06:37:14.598Z,50112.00
2023-04-14T06:42:14.615Z,55008.00
2023-04-14T06:47:14.460Z,60192.00
2023-04-14T06:52:14.476Z,60800.00
2023-04-14T06:57:14.350Z,63136.00
2023-04-14T07:02:14.353Z,60448.00
2023-04-14T07:07:14.175Z,29536.00
2023-04-14T07:12:14.148Z,16640.00
2023-04-14T07:17:14.077Z,18976.00
2023-04-14T07:22:14.049Z,18688.00
2023-04-14T07:27:14.276Z,11780.00
2023-04-14T07:32:13.909Z,10596.00
2023-04-14T07:37:13.817Z,10520.00
2023-04-14T07:42:13.783Z,11768.00
2023-04-14T07:47:13.679Z,14688.00
2023-04-14T07:52:14.336Z,21472.00
2023-04-14T07:57:13.617Z,29824.00
2023-04-14T08:02:13.545Z,26880.00
2023-04-14T08:07:13.439Z,32320.00
2023-04-14T08:12:13.395Z,34368.00
2023-04-14T08:17:13.290Z,46176.00
2023-04-14T08:22:13.232Z,48064.00
2023-04-14T08:27:13.174Z,49824.00
2023-04-14T08:32:13.216Z,39936.00
2023-04-14T08:37:13.029Z,31360.00
2023-04-14T08:42:12.973Z,36576.00
2023-04-14T08:47:12.895Z,26560.00
2023-04-14T08:52:12.865Z,20704.00
2023-04-14T08:57:12.777Z,16416.00
2023-04-14T09:02:12.844Z,14080.00
2023-04-14T09:07:12.642Z,12928.00
2023-04-14T09:12:12.597Z,12032.00
2023-04-14T09:17:12.634Z,11644.00
2023-04-14T09:22:12.456Z,11496.00
2023-04-14T09:27:12.374Z,11328.00
2023-04-14T09:32:12.346Z,11536.00
2023-04-14T09:37:12.251Z,11796.00
2023-04-14T09:42:12.216Z,11908.00
2023-04-14T09:47:12.134Z,12256.00
2023-04-14T09:52:12.049Z,11836.00
2023-04-14T09:57:11.977Z,12192.00
2023-04-14T10:02:12.103Z,12256.00
2023-04-14T10:07:11.828Z,12512.00
2023-04-14T10:12:11.792Z,12384.00
2023-04-14T10:17:11.695Z,12480.00
2023-04-14T10:22:11.686Z,12576.00
2023-04-14T10:27:11.584Z,13216.00
2023-04-14T10:32:11.520Z,13952.00
2023-04-14T10:37:11.441Z,14816.00
2023-04-14T10:42:11.392Z,19072.00
2023-04-14T10:47:11.425Z,25632.00
2023-04-14T10:52:11.254Z,32416.00
2023-04-14T10:57:11.176Z,29472.00
2023-04-14T11:02:11.237Z,29504.00
2023-04-14T11:07:11.047Z,31648.00
2023-04-14T11:12:11.004Z,33152.00
2023-04-14T11:17:10.948Z,28352.00
2023-04-14T11:22:10.865Z,22784.00
2023-04-14T11:27:10.842Z,25088.00
2023-04-14T11:32:10.780Z,24832.00
2023-04-14T11:37:10.638Z,23680.00
2023-04-14T11:42:10.606Z,21376.00
2023-04-14T11:47:10.496Z,20320.00
2023-04-14T11:52:10.478Z,22816.00
2023-04-14T11:57:10.445Z,20064.00
2023-04-14T12:02:10.461Z,18720.00
2023-04-14T12:07:10.268Z,13312.00
2023-04-14T12:12:10.280Z,13312.00
2023-04-14T12:17:10.113Z,10628.00
2023-04-14T12:22:10.079Z,9500.00
2023-04-14T12:27:10.028Z,8952.00
2023-04-14T12:32:09.956Z,8300.00
2023-04-14T12:37:09.870Z,7872.00
2023-04-14T12:42:09.808Z,6804.00
2023-04-14T12:47:09.786Z,7528.00
2023-04-14T12:52:09.659Z,7708.00
2023-04-14T12:57:09.593Z,7808.00
2023-04-14T13:02:09.595Z,7728.00
2023-04-14T13:07:09.528Z,7040.00
2023-04-14T13:12:09.442Z,6856.00
2023-04-14T13:17:09.343Z,6856.00
2023-04-14T13:22:09.303Z,7144.00
2023-04-14T13:27:09.223Z,7248.00
2023-04-14T13:32:09.220Z,7132.00
2023-04-14T13:37:09.042Z,5920.00
2023-04-14T13:42:08.994Z,7232.00
2023-04-14T13:47:08.931Z,6312.00
2023-04-14T13:52:08.907Z,7436.00
2023-04-14T13:57:08.797Z,5848.00
2023-04-14T14:02:08.834Z,6368.00
2023-04-14T14:07:08.677Z,5992.00
2023-04-14T14:12:08.617Z,6140.00
2023-04-14T14:17:08.547Z,5584.00
2023-04-14T14:22:08.483Z,5588.00
2023-04-14T14:27:08.395Z,5660.00
2023-04-14T14:32:08.384Z,5788.00
2023-04-14T14:37:08.282Z,5760.00
2023-04-14T14:42:08.206Z,4644.00
2023-04-14T14:47:08.174Z,5736.00
2023-04-14T14:52:08.085Z,5880.00
2023-04-14T14:57:08.024Z,4440.00
2023-04-14T15:02:07.967Z,5316.00
2023-04-14T15:07:07.807Z,4276.00
2023-04-14T15:12:07.812Z,3536.00
2023-04-14T15:17:07.710Z,3020.00
2023-04-14T15:22:07.691Z,4184.00
2023-04-14T15:27:07.621Z,3876.00
2023-04-14T15:32:07.593Z,3520.00
2023-04-14T15:37:07.493Z,2776.00
2023-04-14T15:42:07.430Z,2836.00
2023-04-14T15:47:07.352Z,2200.00
2023-04-14T15:52:07.281Z,2044.00
2023-04-14T15:57:07.199Z,2056.00
2023-04-14T16:02:07.176Z,2060.00
2023-04-14T16:07:07.084Z,2160.00
2023-04-14T16:12:07.034Z,2476.00
2023-04-14T16:17:06.977Z,2152.00
2023-04-14T16:22:07.716Z,2780.00
2023-04-14T16:27:06.870Z,2896.00
2023-04-14T16:32:06.891Z,2052.00
2023-04-14T16:37:07.518Z,2592.00
2023-04-14T16:42:06.658Z,2560.00
2023-04-14T16:47:06.566Z,2336.00
2023-04-14T16:52:06.655Z,2124.00
2023-04-14T16:57:06.436Z,2056.00
2023-04-14T17:02:06.430Z,1800.00
2023-04-14T17:07:06.270Z,1412.00
2023-04-14T17:12:06.215Z,1380.00
2023-04-14T17:17:06.155Z,1452.00
2023-04-14T17:22:06.093Z,1300.00
2023-04-14T17:27:06.038Z,1204.00
2023-04-14T17:32:05.990Z,1092.00
2023-04-14T17:37:05.900Z,956.00
2023-04-14T17:42:05.805Z,848.00
2023-04-14T17:47:05.754Z,664.00
2023-04-14T17:52:05.689Z,540.00
2023-04-14T17:57:05.641Z,436.00
2023-04-14T18:02:05.628Z,348.00
2023-04-14T18:07:05.507Z,260.00
2023-04-14T18:12:05.411Z,180.00
2023-04-14T18:17:05.412Z,120.00
2023-04-14T18:22:05.280Z,76.00
2023-04-14T18:32:05.129Z,20.00
2023-04-14T18:37:05.079Z,8.00
2023-04-14T18:42:05.064Z,4.00
2023-04-14T18:47:04.963Z,4.00
2023-04-14T18:52:04.902Z,0.00
2023-04-14T18:57:04.862Z,0.00
2023-04-14T19:02:04.853Z,0.00
2023-04-14T19:07:04.715Z,0.00
2023-04-14T19:12:04.648Z,0.00
2023-04-14T19:17:04.585Z,0.00
2023-04-14T19:22:04.490Z,0.00
2023-04-14T19:27:04.443Z,0.00
2023-04-14T19:32:04.565Z,0.00
2023-04-14T19:37:04.305Z,0.00
2023-04-14T19:42:04.197Z,0.00
2023-04-14T19:47:04.278Z,0.00
2023-04-14T19:52:04.096Z,0.00
2023-04-14T19:57:04.021Z,0.00
2023-04-14T20:02:04.304Z,0.00
2023-04-14T20:07:03.947Z,0.00
2023-04-14T20:12:03.837Z,0.00
2023-04-14T20:17:03.825Z,0.00
2023-04-14T20:22:03.725Z,0.00
2023-04-14T20:27:03.638Z,0.00
2023-04-14T20:32:03.542Z,0.00
2023-04-14T20:37:03.496Z,0.00
2023-04-14T20:42:03.435Z,0.00
2023-04-14T20:47:03.426Z,0.00
2023-04-14T20:52:03.339Z,0.00
2023-04-14T20:57:03.241Z,0.00
2023-04-14T21:02:03.417Z,0.00
2023-04-14T21:07:03.084Z,0.00
2023-04-14T21:12:15.479Z,0.00
2023-04-14T21:17:04.380Z,0.00
2023-04-14T21:22:02.930Z,0.00
2023-04-14T21:27:02.817Z,0.00
2023-04-14T21:32:02.831Z,0.00
2023-04-14T21:37:02.686Z,0.00
2023-04-14T21:42:02.645Z,0.00
2023-04-14T21:47:02.569Z,0.00
2023-04-14T21:52:02.497Z,0.00
2023-04-14T21:57:02.417Z,0.00
2023-04-14T22:02:02.448Z,0.00
2023-04-14T22:07:02.292Z,0.00
2023-04-14T22:12:02.244Z,0.00
2023-04-14T22:17:02.309Z,0.00
2023-04-14T22:22:02.149Z,0.00
2023-04-14T22:27:02.025Z,0.00
2023-04-14T22:32:01.975Z,0.00
2023-04-14T22:37:02.015Z,0.00
2023-04-14T22:42:01.843Z,0.00
2023-04-14T22:47:01.780Z,0.00
2023-04-14T22:52:01.779Z,0.00
2023-04-14T22:57:01.641Z,0.00
2023-04-14T23:02:01.714Z,0.00
2023-04-14T23:07:01.540Z,0.00
2023-04-14T23:12:01.457Z,0.00
2023-04-14T23:17:01.374Z,0.00
2023-04-14T23:22:01.301Z,0.00
2023-04-14T23:27:01.231Z,0.00
2023-04-14T23:32:01.308Z,0.00
2023-04-14T23:37:01.099Z,0.00
2023-04-14T23:42:01.039Z,0.00
2023-04-14T23:47:01.082Z,0.00
2023-04-14T23:52:00.914Z,0.00
2023-04-14T23:57:00.861Z,0.00
